This is the latest recevied weather packets stored in our database for station/object HB9MIR-13. If no packets are shown the sender has not sent any weather packets the latest 10 day(s).
| Time | Temp. | Humidity | Pressure | Rain* | Wind** | Luminosity | Snow |
|---|---|---|---|---|---|---|---|
| 1777614959 | 6.11° C | 49% | 1024.5 hPa | 0 mm | - | 46 W/m² | - |
| 1777614284 | 5° C | 55% | 1024.4 hPa | 0 mm | - | 43 W/m² | - |
| 1777613583 | 4.44° C | 58% | 1024.4 hPa | 0 mm | - | 39 W/m² | - |
| 1777612896 | 6.11° C | 48% | 1024.3 hPa | 0 mm | - | 36 W/m² | - |
| 1777612208 | 6.11° C | 47% | 1024.1 hPa | 0 mm | - | 32 W/m² | - |
| 1777611520 | 6.11° C | 47% | 1024.1 hPa | 0 mm | - | 27 W/m² | - |
| 1777610783 | 6.11° C | 47% | 1024 hPa | 0 mm | - | 21 W/m² | - |
| 1777610081 | 6.11° C | 47% | 1023.9 hPa | 0 mm | - | 15 W/m² | - |
| 1777609393 | 6.11° C | 48% | 1023.8 hPa | 0 mm | - | 9 W/m² | - |
| 1777608705 | 6.11° C | 47% | 1023.7 hPa | 0 mm | - | 4 W/m² | - |
| 1777608018 | 6.11° C | 46% | 1023.7 hPa | 0 mm | - | 1 W/m² | - |
| 1777607282 | 5.56° C | 45% | 1023.7 hPa | 0 mm | - | 0 W/m² | - |
| 1777606581 | 4.44° C | 54% | 1023.6 hPa | 0 mm | - | 0 W/m² | - |
| 1777605895 | 5° C | 57% | 1023.6 hPa | 0 mm | - | 0 W/m² | - |
| 1777605208 | 6.11° C | 48% | 1023.5 hPa | 0 mm | - | 0 W/m² | - |
| 1777604522 | 6.11° C | 46% | 1023.5 hPa | 0 mm | - | 0 W/m² | - |
| 1777603835 | 4.44° C | 57% | 1023.5 hPa | 0 mm | - | 0 W/m² | - |
| 1777603147 | 5° C | 58% | 1023.5 hPa | 0 mm | - | 0 W/m² | - |
| 1777602472 | 5° C | 51% | 1023.5 hPa | 0 mm | - | 0 W/m² | - |
| 1777601772 | 4.44° C | 59% | 1023.4 hPa | 0 mm | - | 0 W/m² | - |
| 1777601085 | 5.56° C | 54% | 1023.3 hPa | 0 mm | - | 0 W/m² | - |
| 1777600397 | 5° C | 58% | 1023.3 hPa | 0 mm | - | 0 W/m² | - |
| 1777599709 | 4.44° C | 58% | 1023.3 hPa | 0 mm | - | 0 W/m² | - |
| 1777599021 | 5° C | 62% | 1023.3 hPa | 0 mm | - | 0 W/m² | - |
| 1777598335 | 4.44° C | 61% | 1023.3 hPa | 0 mm | - | 0 W/m² | - |
* Rain latest hour (hover to see other rain measurements)
** Current wind speed in m/s (hover to see current wind gust speed)